CheckWX is a tool to help pilots better visualize weather data.  It is not intended as a substitute for an official pre-flight weather briefing.

17:55:38 UTC

19S METAR
Sublette Municipal Airport
Sublette, Kansas, USA
Current

21 mins ago

K19S 211735Z AUTO 35013KT 10SM BKN025 OVC110 04/M02 A3015 RMK AO2 T00451017
Observed
Nov-21 @ 17:35 UTC
Wind
  • 350° at 13 KTS
Visibility
10 SM
Flight Rules
MVFR
Cloud Levels
  • Broken at 2,500' AGL
  • Overcast at 11,000' AGL
Temperature
C / 41°F
Dewpoint
-2°C / 28°F
Humidity
61%
Altimeter
30.15" Hg
Pressure
1021.02 hPa
Previous

41 mins ago

K19S 211715Z AUTO 01015KT 10SM SCT023 BKN110 04/M02 A3015 RMK AO2 T00371020
Observed
Nov-21 @ 17:15 UTC
Wind
  • 010° at 15 KTS
Visibility
10 SM
Flight Rules
VFR
Cloud Levels
  • Scattered at 2,300' AGL
  • Broken at 11,000' AGL
Temperature
C / 39°F
Dewpoint
-2°C / 28°F
Humidity
65%
Altimeter
30.15" Hg
Pressure
1021.02 hPa
Previous

1 hour ago

K19S 211655Z AUTO 02019KT 10SM BKN021 OVC110 03/M02 A3015 RMK AO2 T00341019
Observed
Nov-21 @ 16:55 UTC
Wind
  • 020° at 19 KTS
Visibility
10 SM
Flight Rules
MVFR
Cloud Levels
  • Broken at 2,100' AGL
  • Overcast at 11,000' AGL
Temperature
C / 37°F
Dewpoint
-2°C / 28°F
Humidity
70%
Altimeter
30.15" Hg
Pressure
1021.02 hPa